Wilmington, Illinois
Current Conditions -  °F | °C
As of 1:35 PM on Tuesday 21 Oct 2014 (Local Time) from KJOT Reporting Station
Overcast Overcast  
Wind Chill: 53°   Ceiling: 4500
Heat Index: 53°   Visibility: 10mi
Dew Point: 40°   Wind: 9mph
Humidity: 62%   Direction: 10°N
Pressure: 30.17"   Gusts: NA
Location:  41.31°N, 88.15°W
Report Text: KJOT 211835Z AUTO 01008KT 10SM SCT035 OVC045 12/05 A3017 RMK AO2 T01170047
Loading
Personal Weather Stations






























Interactive Weather Map
Tropical Storm Tracking
New forecast layout! Learn more

10-Day Weather Forecast

Advertisements
Track Severe Weather on mobile